sensor_id;sensor_type;location;lat;lon;timestamp;P1;durP1;ratioP1;P2;durP2;ratioP2
7531;SDS011;3807;49.030;8.714;2022-12-19T00:01:31;32.17;;;16.10;;
7531;SDS011;3807;49.030;8.714;2022-12-19T00:03:59;32.43;;;15.40;;
7531;SDS011;3807;49.030;8.714;2022-12-19T00:06:31;36.13;;;15.97;;
7531;SDS011;3807;49.030;8.714;2022-12-19T00:08:57;36.37;;;17.80;;
7531;SDS011;3807;49.030;8.714;2022-12-19T00:11:25;39.47;;;17.77;;
7531;SDS011;3807;49.030;8.714;2022-12-19T00:13:51;32.37;;;15.67;;
7531;SDS011;3807;49.030;8.714;2022-12-19T00:16:18;34.23;;;16.07;;
7531;SDS011;3807;49.030;8.714;2022-12-19T00:18:46;36.00;;;16.00;;
7531;SDS011;3807;49.030;8.714;2022-12-19T00:21:13;35.97;;;14.70;;
7531;SDS011;3807;49.030;8.714;2022-12-19T00:23:40;34.93;;;15.93;;
7531;SDS011;3807;49.030;8.714;2022-12-19T00:26:16;48.42;;;22.33;;
7531;SDS011;3807;49.030;8.714;2022-12-19T00:28:47;37.23;;;17.23;;
7531;SDS011;3807;49.030;8.714;2022-12-19T00:31:15;38.00;;;16.73;;
7531;SDS011;3807;49.030;8.714;2022-12-19T00:33:42;36.37;;;15.97;;
7531;SDS011;3807;49.030;8.714;2022-12-19T00:36:11;36.57;;;17.33;;
7531;SDS011;3807;49.030;8.714;2022-12-19T00:38:38;32.03;;;16.07;;
7531;SDS011;3807;49.030;8.714;2022-12-19T00:41:08;34.27;;;15.90;;
7531;SDS011;3807;49.030;8.714;2022-12-19T00:43:35;41.73;;;17.20;;
7531;SDS011;3807;49.030;8.714;2022-12-19T00:46:04;36.50;;;17.20;;
7531;SDS011;3807;49.030;8.714;2022-12-19T00:48:30;40.00;;;17.30;;
7531;SDS011;3807;49.030;8.714;2022-12-19T00:51:03;40.30;;;18.77;;
7531;SDS011;3807;49.030;8.714;2022-12-19T00:53:31;40.10;;;16.73;;
7531;SDS011;3807;49.030;8.714;2022-12-19T00:56:04;38.47;;;18.50;;
7531;SDS011;3807;49.030;8.714;2022-12-19T00:58:30;39.43;;;20.03;;
7531;SDS011;3807;49.030;8.714;2022-12-19T01:00:56;42.73;;;18.00;;
7531;SDS011;3807;49.030;8.714;2022-12-19T01:03:22;37.70;;;16.87;;
7531;SDS011;3807;49.030;8.714;2022-12-19T01:05:51;44.60;;;18.10;;
7531;SDS011;3807;49.030;8.714;2022-12-19T01:08:17;40.60;;;18.07;;
7531;SDS011;3807;49.030;8.714;2022-12-19T01:10:46;37.10;;;17.50;;
7531;SDS011;3807;49.030;8.714;2022-12-19T01:13:13;35.17;;;17.17;;
7531;SDS011;3807;49.030;8.714;2022-12-19T01:15:40;37.67;;;18.07;;
7531;SDS011;3807;49.030;8.714;2022-12-19T01:18:06;36.47;;;17.60;;
7531;SDS011;3807;49.030;8.714;2022-12-19T01:20:34;44.13;;;18.90;;
7531;SDS011;3807;49.030;8.714;2022-12-19T01:23:02;34.00;;;16.23;;
7531;SDS011;3807;49.030;8.714;2022-12-19T01:25:27;35.57;;;15.73;;
7531;SDS011;3807;49.030;8.714;2022-12-19T01:27:53;43.83;;;19.43;;
7531;SDS011;3807;49.030;8.714;2022-12-19T01:30:19;38.93;;;17.23;;
7531;SDS011;3807;49.030;8.714;2022-12-19T01:32:45;44.27;;;18.67;;
7531;SDS011;3807;49.030;8.714;2022-12-19T01:35:10;37.97;;;18.20;;
7531;SDS011;3807;49.030;8.714;2022-12-19T01:37:35;43.50;;;17.93;;
7531;SDS011;3807;49.030;8.714;2022-12-19T01:40:01;40.47;;;17.57;;
7531;SDS011;3807;49.030;8.714;2022-12-19T01:42:32;37.80;;;16.77;;
7531;SDS011;3807;49.030;8.714;2022-12-19T01:47:31;40.57;;;18.70;;
7531;SDS011;3807;49.030;8.714;2022-12-19T01:50:00;38.43;;;17.13;;
7531;SDS011;3807;49.030;8.714;2022-12-19T01:52:26;43.33;;;18.03;;
7531;SDS011;3807;49.030;8.714;2022-12-19T01:54:51;39.43;;;18.03;;
7531;SDS011;3807;49.030;8.714;2022-12-19T01:57:17;39.07;;;18.17;;
7531;SDS011;3807;49.030;8.714;2022-12-19T01:59:45;37.80;;;17.70;;
7531;SDS011;3807;49.030;8.714;2022-12-19T02:02:22;35.30;;;16.57;;
7531;SDS011;3807;49.030;8.714;2022-12-19T02:04:52;38.33;;;17.33;;
7531;SDS011;3807;49.030;8.714;2022-12-19T02:07:18;40.20;;;16.00;;
7531;SDS011;3807;49.030;8.714;2022-12-19T02:09:47;38.20;;;16.60;;
7531;SDS011;3807;49.030;8.714;2022-12-19T02:12:15;35.83;;;17.40;;
7531;SDS011;3807;49.030;8.714;2022-12-19T02:14:40;40.67;;;17.97;;
7531;SDS011;3807;49.030;8.714;2022-12-19T02:17:09;40.10;;;17.57;;
7531;SDS011;3807;49.030;8.714;2022-12-19T02:28:11;38.53;;;18.90;;
7531;SDS011;3807;49.030;8.714;2022-12-19T02:30:45;41.20;;;17.63;;
7531;SDS011;3807;49.030;8.714;2022-12-19T02:33:25;43.63;;;19.17;;
7531;SDS011;3807;49.030;8.714;2022-12-19T02:36:20;44.37;;;18.97;;
7531;SDS011;3807;49.030;8.714;2022-12-19T02:38:56;43.60;;;19.13;;
7531;SDS011;3807;49.030;8.714;2022-12-19T02:41:31;32.37;;;14.00;;
7531;SDS011;3807;49.030;8.714;2022-12-19T02:44:08;39.80;;;17.87;;
7531;SDS011;3807;49.030;8.714;2022-12-19T02:46:45;37.77;;;15.57;;
7531;SDS011;3807;49.030;8.714;2022-12-19T02:49:12;36.40;;;17.83;;
7531;SDS011;3807;49.030;8.714;2022-12-19T02:51:38;32.33;;;16.13;;
7531;SDS011;3807;49.030;8.714;2022-12-19T02:54:04;44.50;;;19.13;;
7531;SDS011;3807;49.030;8.714;2022-12-19T03:01:50;35.63;;;16.93;;
7531;SDS011;3807;49.030;8.714;2022-12-19T03:07:28;46.63;;;17.47;;
7531;SDS011;3807;49.030;8.714;2022-12-19T03:12:31;40.93;;;18.77;;
7531;SDS011;3807;49.030;8.714;2022-12-19T03:15:00;35.43;;;16.80;;
7531;SDS011;3807;49.030;8.714;2022-12-19T03:17:26;42.90;;;18.43;;
7531;SDS011;3807;49.030;8.714;2022-12-19T03:19:52;35.03;;;16.57;;
7531;SDS011;3807;49.030;8.714;2022-12-19T03:22:17;33.30;;;16.37;;
7531;SDS011;3807;49.030;8.714;2022-12-19T03:24:43;40.97;;;18.40;;
7531;SDS011;3807;49.030;8.714;2022-12-19T03:27:10;36.27;;;18.40;;
7531;SDS011;3807;49.030;8.714;2022-12-19T03:29:48;35.23;;;17.20;;
7531;SDS011;3807;49.030;8.714;2022-12-19T03:32:19;35.07;;;17.03;;
7531;SDS011;3807;49.030;8.714;2022-12-19T03:34:51;43.27;;;18.23;;
7531;SDS011;3807;49.030;8.714;2022-12-19T03:37:21;41.47;;;18.73;;
7531;SDS011;3807;49.030;8.714;2022-12-19T03:39:51;45.63;;;19.47;;
7531;SDS011;3807;49.030;8.714;2022-12-19T03:42:22;43.53;;;19.70;;
7531;SDS011;3807;49.030;8.714;2022-12-19T03:45:14;45.57;;;19.23;;
7531;SDS011;3807;49.030;8.714;2022-12-19T03:47:48;46.47;;;20.10;;
7531;SDS011;3807;49.030;8.714;2022-12-19T03:50:20;45.50;;;19.60;;
7531;SDS011;3807;49.030;8.714;2022-12-19T03:55:48;36.33;;;17.40;;
7531;SDS011;3807;49.030;8.714;2022-12-19T03:58:26;38.83;;;18.10;;
7531;SDS011;3807;49.030;8.714;2022-12-19T04:00:57;38.83;;;17.63;;
7531;SDS011;3807;49.030;8.714;2022-12-19T04:03:24;36.10;;;17.33;;
7531;SDS011;3807;49.030;8.714;2022-12-19T04:05:52;38.23;;;17.00;;
7531;SDS011;3807;49.030;8.714;2022-12-19T04:08:20;44.47;;;18.47;;
7531;SDS011;3807;49.030;8.714;2022-12-19T04:10:49;38.07;;;17.00;;
7531;SDS011;3807;49.030;8.714;2022-12-19T04:13:21;41.40;;;18.67;;
7531;SDS011;3807;49.030;8.714;2022-12-19T04:16:11;41.07;;;18.87;;
7531;SDS011;3807;49.030;8.714;2022-12-19T04:18:46;35.60;;;16.13;;
7531;SDS011;3807;49.030;8.714;2022-12-19T04:21:19;38.50;;;18.37;;
7531;SDS011;3807;49.030;8.714;2022-12-19T04:23:51;40.17;;;16.93;;
7531;SDS011;3807;49.030;8.714;2022-12-19T04:26:21;37.67;;;17.00;;
7531;SDS011;3807;49.030;8.714;2022-12-19T04:28:49;40.17;;;16.90;;
7531;SDS011;3807;49.030;8.714;2022-12-19T04:31:22;31.40;;;15.47;;
7531;SDS011;3807;49.030;8.714;2022-12-19T04:33:48;39.77;;;17.63;;
7531;SDS011;3807;49.030;8.714;2022-12-19T04:36:13;44.60;;;16.50;;
7531;SDS011;3807;49.030;8.714;2022-12-19T04:38:39;47.70;;;19.30;;
7531;SDS011;3807;49.030;8.714;2022-12-19T04:41:05;44.67;;;17.53;;
7531;SDS011;3807;49.030;8.714;2022-12-19T04:43:30;35.47;;;17.27;;
7531;SDS011;3807;49.030;8.714;2022-12-19T04:45:55;42.83;;;18.47;;
7531;SDS011;3807;49.030;8.714;2022-12-19T04:48:21;35.17;;;17.40;;
7531;SDS011;3807;49.030;8.714;2022-12-19T04:50:46;32.33;;;17.27;;
7531;SDS011;3807;49.030;8.714;2022-12-19T04:53:11;39.33;;;18.30;;
7531;SDS011;3807;49.030;8.714;2022-12-19T04:55:37;43.93;;;18.40;;
7531;SDS011;3807;49.030;8.714;2022-12-19T04:58:04;42.63;;;18.47;;
7531;SDS011;3807;49.030;8.714;2022-12-19T05:00:29;40.27;;;17.17;;
7531;SDS011;3807;49.030;8.714;2022-12-19T05:02:55;43.70;;;20.17;;
7531;SDS011;3807;49.030;8.714;2022-12-19T05:05:20;44.10;;;19.87;;
7531;SDS011;3807;49.030;8.714;2022-12-19T05:07:45;49.20;;;20.00;;
7531;SDS011;3807;49.030;8.714;2022-12-19T05:10:11;39.47;;;18.90;;
7531;SDS011;3807;49.030;8.714;2022-12-19T05:12:36;42.20;;;19.43;;
7531;SDS011;3807;49.030;8.714;2022-12-19T05:15:01;44.40;;;19.43;;
7531;SDS011;3807;49.030;8.714;2022-12-19T05:17:27;33.13;;;16.47;;
7531;SDS011;3807;49.030;8.714;2022-12-19T05:19:52;34.73;;;16.47;;
7531;SDS011;3807;49.030;8.714;2022-12-19T05:22:18;41.57;;;19.17;;
7531;SDS011;3807;49.030;8.714;2022-12-19T05:24:43;37.90;;;17.97;;
7531;SDS011;3807;49.030;8.714;2022-12-19T05:27:08;47.73;;;18.60;;
7531;SDS011;3807;49.030;8.714;2022-12-19T05:29:34;33.57;;;15.93;;
7531;SDS011;3807;49.030;8.714;2022-12-19T05:31:59;43.83;;;20.53;;
7531;SDS011;3807;49.030;8.714;2022-12-19T05:34:25;35.77;;;16.83;;
7531;SDS011;3807;49.030;8.714;2022-12-19T05:36:50;31.30;;;14.43;;
7531;SDS011;3807;49.030;8.714;2022-12-19T05:39:15;33.30;;;14.83;;
7531;SDS011;3807;49.030;8.714;2022-12-19T05:41:41;33.77;;;15.23;;
7531;SDS011;3807;49.030;8.714;2022-12-19T05:44:06;44.90;;;18.50;;
7531;SDS011;3807;49.030;8.714;2022-12-19T05:46:33;42.27;;;18.23;;
7531;SDS011;3807;49.030;8.714;2022-12-19T05:48:58;34.47;;;15.93;;
7531;SDS011;3807;49.030;8.714;2022-12-19T05:51:24;37.37;;;17.67;;
7531;SDS011;3807;49.030;8.714;2022-12-19T05:53:49;41.27;;;17.63;;
7531;SDS011;3807;49.030;8.714;2022-12-19T05:56:16;44.43;;;18.67;;
7531;SDS011;3807;49.030;8.714;2022-12-19T05:58:43;44.93;;;18.10;;
7531;SDS011;3807;49.030;8.714;2022-12-19T06:03:47;46.17;;;19.03;;
7531;SDS011;3807;49.030;8.714;2022-12-19T06:06:14;39.53;;;18.53;;
7531;SDS011;3807;49.030;8.714;2022-12-19T06:08:41;40.40;;;18.77;;
7531;SDS011;3807;49.030;8.714;2022-12-19T06:11:07;42.33;;;19.17;;
7531;SDS011;3807;49.030;8.714;2022-12-19T06:13:34;40.43;;;18.50;;
7531;SDS011;3807;49.030;8.714;2022-12-19T06:16:02;45.07;;;18.43;;
7531;SDS011;3807;49.030;8.714;2022-12-19T06:18:29;45.73;;;20.47;;
7531;SDS011;3807;49.030;8.714;2022-12-19T06:20:58;42.47;;;18.00;;
7531;SDS011;3807;49.030;8.714;2022-12-19T06:23:25;34.17;;;14.73;;
7531;SDS011;3807;49.030;8.714;2022-12-19T06:25:54;45.80;;;19.13;;
7531;SDS011;3807;49.030;8.714;2022-12-19T06:28:20;44.23;;;19.87;;
7531;SDS011;3807;49.030;8.714;2022-12-19T06:30:45;52.70;;;21.33;;
7531;SDS011;3807;49.030;8.714;2022-12-19T06:33:11;45.40;;;20.40;;
7531;SDS011;3807;49.030;8.714;2022-12-19T06:35:36;46.97;;;20.87;;
7531;SDS011;3807;49.030;8.714;2022-12-19T06:38:01;43.70;;;19.73;;
7531;SDS011;3807;49.030;8.714;2022-12-19T06:40:27;43.43;;;19.67;;
7531;SDS011;3807;49.030;8.714;2022-12-19T06:43:11;40.10;;;19.40;;
7531;SDS011;3807;49.030;8.714;2022-12-19T06:45:36;47.40;;;21.70;;
7531;SDS011;3807;49.030;8.714;2022-12-19T06:48:01;46.57;;;18.80;;
7531;SDS011;3807;49.030;8.714;2022-12-19T06:50:27;36.70;;;17.40;;
7531;SDS011;3807;49.030;8.714;2022-12-19T06:52:52;46.07;;;21.90;;
7531;SDS011;3807;49.030;8.714;2022-12-19T06:55:17;54.93;;;21.67;;
7531;SDS011;3807;49.030;8.714;2022-12-19T06:57:43;55.53;;;23.30;;
7531;SDS011;3807;49.030;8.714;2022-12-19T07:00:13;30.60;;;16.83;;
7531;SDS011;3807;49.030;8.714;2022-12-19T07:02:39;42.00;;;19.93;;
7531;SDS011;3807;49.030;8.714;2022-12-19T07:05:08;40.73;;;18.43;;
7531;SDS011;3807;49.030;8.714;2022-12-19T07:07:35;49.17;;;20.00;;
7531;SDS011;3807;49.030;8.714;2022-12-19T07:10:00;53.83;;;24.67;;
7531;SDS011;3807;49.030;8.714;2022-12-19T07:12:26;51.73;;;20.07;;
7531;SDS011;3807;49.030;8.714;2022-12-19T07:14:53;44.07;;;18.43;;
7531;SDS011;3807;49.030;8.714;2022-12-19T07:17:18;46.57;;;19.07;;
7531;SDS011;3807;49.030;8.714;2022-12-19T07:19:44;45.43;;;19.33;;
7531;SDS011;3807;49.030;8.714;2022-12-19T07:22:09;55.00;;;20.90;;
7531;SDS011;3807;49.030;8.714;2022-12-19T07:24:35;43.00;;;19.53;;
7531;SDS011;3807;49.030;8.714;2022-12-19T07:27:01;47.33;;;20.10;;
7531;SDS011;3807;49.030;8.714;2022-12-19T07:29:27;46.90;;;21.77;;
7531;SDS011;3807;49.030;8.714;2022-12-19T07:31:52;52.33;;;22.10;;
7531;SDS011;3807;49.030;8.714;2022-12-19T07:34:18;40.27;;;18.20;;
7531;SDS011;3807;49.030;8.714;2022-12-19T07:36:43;43.57;;;17.73;;
7531;SDS011;3807;49.030;8.714;2022-12-19T07:39:08;43.17;;;18.30;;
7531;SDS011;3807;49.030;8.714;2022-12-19T07:41:37;42.83;;;20.07;;
7531;SDS011;3807;49.030;8.714;2022-12-19T07:44:03;41.73;;;18.90;;
7531;SDS011;3807;49.030;8.714;2022-12-19T07:46:29;48.60;;;20.30;;
7531;SDS011;3807;49.030;8.714;2022-12-19T07:48:58;53.30;;;20.27;;
7531;SDS011;3807;49.030;8.714;2022-12-19T07:51:23;52.00;;;19.73;;
7531;SDS011;3807;49.030;8.714;2022-12-19T07:53:48;46.63;;;19.43;;
7531;SDS011;3807;49.030;8.714;2022-12-19T07:56:14;49.07;;;18.77;;
7531;SDS011;3807;49.030;8.714;2022-12-19T07:58:39;48.30;;;18.40;;
7531;SDS011;3807;49.030;8.714;2022-12-19T08:01:05;42.07;;;18.47;;
7531;SDS011;3807;49.030;8.714;2022-12-19T08:03:31;55.60;;;20.03;;
7531;SDS011;3807;49.030;8.714;2022-12-19T08:06:04;41.60;;;18.60;;
7531;SDS011;3807;49.030;8.714;2022-12-19T08:08:31;47.10;;;19.07;;
7531;SDS011;3807;49.030;8.714;2022-12-19T08:11:10;52.00;;;19.97;;
7531;SDS011;3807;49.030;8.714;2022-12-19T08:13:38;45.30;;;19.80;;
7531;SDS011;3807;49.030;8.714;2022-12-19T08:16:03;49.43;;;20.30;;
7531;SDS011;3807;49.030;8.714;2022-12-19T08:18:29;53.50;;;23.80;;
7531;SDS011;3807;49.030;8.714;2022-12-19T08:20:55;48.30;;;21.57;;
7531;SDS011;3807;49.030;8.714;2022-12-19T08:23:21;54.80;;;20.97;;
7531;SDS011;3807;49.030;8.714;2022-12-19T08:25:46;52.23;;;20.70;;
7531;SDS011;3807;49.030;8.714;2022-12-19T08:28:12;52.00;;;21.10;;
7531;SDS011;3807;49.030;8.714;2022-12-19T08:30:38;45.83;;;20.67;;
7531;SDS011;3807;49.030;8.714;2022-12-19T08:33:03;60.07;;;22.37;;
7531;SDS011;3807;49.030;8.714;2022-12-19T08:35:30;59.33;;;22.87;;
7531;SDS011;3807;49.030;8.714;2022-12-19T08:37:55;49.93;;;20.03;;
7531;SDS011;3807;49.030;8.714;2022-12-19T08:40:20;51.63;;;20.57;;
7531;SDS011;3807;49.030;8.714;2022-12-19T08:42:47;62.17;;;21.33;;
7531;SDS011;3807;49.030;8.714;2022-12-19T08:45:12;52.00;;;21.90;;
7531;SDS011;3807;49.030;8.714;2022-12-19T08:47:38;50.53;;;20.60;;
7531;SDS011;3807;49.030;8.714;2022-12-19T08:50:03;46.97;;;19.63;;
7531;SDS011;3807;49.030;8.714;2022-12-19T08:52:29;57.87;;;21.27;;
7531;SDS011;3807;49.030;8.714;2022-12-19T08:54:54;58.10;;;23.80;;
7531;SDS011;3807;49.030;8.714;2022-12-19T08:57:19;61.30;;;25.37;;
7531;SDS011;3807;49.030;8.714;2022-12-19T08:59:45;52.07;;;22.30;;
7531;SDS011;3807;49.030;8.714;2022-12-19T09:02:10;55.07;;;20.73;;
7531;SDS011;3807;49.030;8.714;2022-12-19T09:04:35;55.70;;;22.90;;
7531;SDS011;3807;49.030;8.714;2022-12-19T09:07:01;55.30;;;21.93;;
7531;SDS011;3807;49.030;8.714;2022-12-19T09:09:27;68.50;;;23.27;;
7531;SDS011;3807;49.030;8.714;2022-12-19T09:11:52;58.47;;;20.80;;
7531;SDS011;3807;49.030;8.714;2022-12-19T09:14:17;58.10;;;21.97;;
7531;SDS011;3807;49.030;8.714;2022-12-19T09:16:43;67.07;;;22.23;;
7531;SDS011;3807;49.030;8.714;2022-12-19T09:19:08;61.17;;;22.40;;
7531;SDS011;3807;49.030;8.714;2022-12-19T09:21:39;61.30;;;22.80;;
7531;SDS011;3807;49.030;8.714;2022-12-19T09:24:04;69.47;;;23.17;;
7531;SDS011;3807;49.030;8.714;2022-12-19T09:26:30;66.27;;;22.97;;
7531;SDS011;3807;49.030;8.714;2022-12-19T09:28:55;56.13;;;21.07;;
7531;SDS011;3807;49.030;8.714;2022-12-19T09:31:22;60.03;;;23.03;;
7531;SDS011;3807;49.030;8.714;2022-12-19T09:33:49;78.77;;;26.03;;
7531;SDS011;3807;49.030;8.714;2022-12-19T09:36:19;70.73;;;27.00;;
7531;SDS011;3807;49.030;8.714;2022-12-19T09:38:47;67.00;;;22.80;;
7531;SDS011;3807;49.030;8.714;2022-12-19T09:49:25;64.73;;;22.27;;
7531;SDS011;3807;49.030;8.714;2022-12-19T09:51:58;69.10;;;23.90;;
7531;SDS011;3807;49.030;8.714;2022-12-19T09:54:26;66.23;;;23.07;;
7531;SDS011;3807;49.030;8.714;2022-12-19T09:57:02;64.43;;;22.87;;
7531;SDS011;3807;49.030;8.714;2022-12-19T09:59:31;59.47;;;20.43;;
7531;SDS011;3807;49.030;8.714;2022-12-19T10:04:54;50.40;;;18.13;;
7531;SDS011;3807;49.030;8.714;2022-12-19T10:07:26;52.30;;;19.17;;
7531;SDS011;3807;49.030;8.714;2022-12-19T10:09:52;60.20;;;21.87;;
7531;SDS011;3807;49.030;8.714;2022-12-19T10:15:07;96.33;;;26.20;;
7531;SDS011;3807;49.030;8.714;2022-12-19T10:17:45;71.03;;;23.10;;
7531;SDS011;3807;49.030;8.714;2022-12-19T10:20:35;60.20;;;21.93;;
7531;SDS011;3807;49.030;8.714;2022-12-19T10:28:38;49.67;;;20.13;;
7531;SDS011;3807;49.030;8.714;2022-12-19T10:34:11;57.53;;;21.27;;
7531;SDS011;3807;49.030;8.714;2022-12-19T10:36:44;72.33;;;24.20;;
7531;SDS011;3807;49.030;8.714;2022-12-19T10:41:54;77.73;;;25.53;;
7531;SDS011;3807;49.030;8.714;2022-12-19T10:44:27;82.97;;;25.77;;
7531;SDS011;3807;49.030;8.714;2022-12-19T10:46:55;71.67;;;27.07;;
7531;SDS011;3807;49.030;8.714;2022-12-19T10:49:24;65.83;;;25.33;;
7531;SDS011;3807;49.030;8.714;2022-12-19T10:52:00;75.57;;;26.63;;
7531;SDS011;3807;49.030;8.714;2022-12-19T11:02:31;82.57;;;28.30;;
7531;SDS011;3807;49.030;8.714;2022-12-19T11:05:04;72.03;;;27.97;;
7531;SDS011;3807;49.030;8.714;2022-12-19T11:10:34;55.00;;;23.40;;
7531;SDS011;3807;49.030;8.714;2022-12-19T11:13:00;61.10;;;25.50;;
7531;SDS011;3807;49.030;8.714;2022-12-19T11:15:25;61.53;;;25.20;;
7531;SDS011;3807;49.030;8.714;2022-12-19T11:17:50;68.77;;;26.47;;
7531;SDS011;3807;49.030;8.714;2022-12-19T11:20:20;61.00;;;26.07;;
7531;SDS011;3807;49.030;8.714;2022-12-19T11:22:50;66.67;;;24.90;;
7531;SDS011;3807;49.030;8.714;2022-12-19T11:25:21;69.80;;;25.93;;
7531;SDS011;3807;49.030;8.714;2022-12-19T11:27:54;66.23;;;26.37;;
7531;SDS011;3807;49.030;8.714;2022-12-19T11:30:21;86.07;;;36.93;;
7531;SDS011;3807;49.030;8.714;2022-12-19T11:33:05;69.63;;;28.50;;
7531;SDS011;3807;49.030;8.714;2022-12-19T11:35:47;62.90;;;24.83;;
7531;SDS011;3807;49.030;8.714;2022-12-19T11:38:15;60.33;;;22.37;;
7531;SDS011;3807;49.030;8.714;2022-12-19T11:40:46;51.07;;;24.17;;
7531;SDS011;3807;49.030;8.714;2022-12-19T11:56:27;58.67;;;24.63;;
7531;SDS011;3807;49.030;8.714;2022-12-19T11:58:59;60.93;;;23.53;;
7531;SDS011;3807;49.030;8.714;2022-12-19T12:01:41;56.70;;;22.30;;
7531;SDS011;3807;49.030;8.714;2022-12-19T12:07:31;50.77;;;22.20;;
7531;SDS011;3807;49.030;8.714;2022-12-19T12:18:38;48.73;;;24.57;;
7531;SDS011;3807;49.030;8.714;2022-12-19T12:27:02;68.80;;;31.87;;
7531;SDS011;3807;49.030;8.714;2022-12-19T12:35:22;54.70;;;24.80;;
7531;SDS011;3807;49.030;8.714;2022-12-19T12:40:52;61.90;;;25.50;;
7531;SDS011;3807;49.030;8.714;2022-12-19T12:46:11;66.50;;;27.10;;
7531;SDS011;3807;49.030;8.714;2022-12-19T12:49:00;51.23;;;25.20;;
7531;SDS011;3807;49.030;8.714;2022-12-19T12:51:28;50.87;;;23.70;;
7531;SDS011;3807;49.030;8.714;2022-12-19T12:54:07;58.47;;;26.23;;
7531;SDS011;3807;49.030;8.714;2022-12-19T12:56:37;54.27;;;24.60;;
7531;SDS011;3807;49.030;8.714;2022-12-19T12:59:24;60.53;;;27.07;;
7531;SDS011;3807;49.030;8.714;2022-12-19T13:01:52;61.47;;;28.53;;
7531;SDS011;3807;49.030;8.714;2022-12-19T13:04:27;54.03;;;27.03;;
7531;SDS011;3807;49.030;8.714;2022-12-19T13:07:03;54.10;;;25.00;;
7531;SDS011;3807;49.030;8.714;2022-12-19T13:09:42;49.13;;;24.00;;
7531;SDS011;3807;49.030;8.714;2022-12-19T13:12:17;50.03;;;25.13;;
7531;SDS011;3807;49.030;8.714;2022-12-19T13:18:00;45.53;;;24.03;;
7531;SDS011;3807;49.030;8.714;2022-12-19T13:23:52;43.80;;;20.97;;
7531;SDS011;3807;49.030;8.714;2022-12-19T13:25:58;43.20;;;20.87;;
7531;SDS011;3807;49.030;8.714;2022-12-19T13:36:43;52.33;;;23.60;;
7531;SDS011;3807;49.030;8.714;2022-12-19T13:39:16;47.73;;;21.40;;
7531;SDS011;3807;49.030;8.714;2022-12-19T13:41:51;50.67;;;23.73;;
7531;SDS011;3807;49.030;8.714;2022-12-19T13:44:52;58.47;;;24.90;;
7531;SDS011;3807;49.030;8.714;2022-12-19T13:47:21;47.17;;;22.20;;
7531;SDS011;3807;49.030;8.714;2022-12-19T13:49:48;45.70;;;22.43;;
7531;SDS011;3807;49.030;8.714;2022-12-19T13:52:16;55.03;;;22.37;;
7531;SDS011;3807;49.030;8.714;2022-12-19T13:54:46;46.87;;;23.50;;
7531;SDS011;3807;49.030;8.714;2022-12-19T13:57:22;49.30;;;22.87;;
7531;SDS011;3807;49.030;8.714;2022-12-19T13:59:49;46.33;;;21.87;;
7531;SDS011;3807;49.030;8.714;2022-12-19T14:03:00;52.17;;;22.67;;
7531;SDS011;3807;49.030;8.714;2022-12-19T14:05:43;49.17;;;21.17;;
7531;SDS011;3807;49.030;8.714;2022-12-19T14:08:03;44.93;;;21.60;;
7531;SDS011;3807;49.030;8.714;2022-12-19T14:10:31;42.27;;;21.57;;
7531;SDS011;3807;49.030;8.714;2022-12-19T14:12:59;55.37;;;21.73;;
7531;SDS011;3807;49.030;8.714;2022-12-19T14:15:47;45.87;;;22.70;;
7531;SDS011;3807;49.030;8.714;2022-12-19T14:18:20;58.33;;;23.40;;
7531;SDS011;3807;49.030;8.714;2022-12-19T14:20:54;45.23;;;22.33;;
7531;SDS011;3807;49.030;8.714;2022-12-19T14:23:42;58.00;;;25.37;;
7531;SDS011;3807;49.030;8.714;2022-12-19T14:26:11;59.70;;;25.50;;
7531;SDS011;3807;49.030;8.714;2022-12-19T14:28:51;52.00;;;25.63;;
7531;SDS011;3807;49.030;8.714;2022-12-19T14:31:20;55.13;;;25.03;;
7531;SDS011;3807;49.030;8.714;2022-12-19T14:33:49;57.03;;;24.00;;
7531;SDS011;3807;49.030;8.714;2022-12-19T14:36:19;48.50;;;22.80;;
7531;SDS011;3807;49.030;8.714;2022-12-19T14:38:46;50.57;;;24.53;;
7531;SDS011;3807;49.030;8.714;2022-12-19T14:41:16;56.87;;;26.20;;
7531;SDS011;3807;49.030;8.714;2022-12-19T14:44:20;56.83;;;26.50;;
7531;SDS011;3807;49.030;8.714;2022-12-19T14:47:09;55.57;;;25.47;;
7531;SDS011;3807;49.030;8.714;2022-12-19T14:49:36;49.63;;;23.87;;
7531;SDS011;3807;49.030;8.714;2022-12-19T14:52:02;50.07;;;25.20;;
7531;SDS011;3807;49.030;8.714;2022-12-19T14:54:29;48.07;;;24.97;;
7531;SDS011;3807;49.030;8.714;2022-12-19T14:56:55;49.30;;;24.73;;
7531;SDS011;3807;49.030;8.714;2022-12-19T14:59:31;49.67;;;24.67;;
7531;SDS011;3807;49.030;8.714;2022-12-19T15:04:32;48.63;;;25.90;;
7531;SDS011;3807;49.030;8.714;2022-12-19T15:07:00;47.43;;;23.27;;
7531;SDS011;3807;49.030;8.714;2022-12-19T15:09:30;48.47;;;23.43;;
7531;SDS011;3807;49.030;8.714;2022-12-19T15:13:00;57.10;;;26.90;;
7531;SDS011;3807;49.030;8.714;2022-12-19T15:15:36;52.17;;;25.37;;
7531;SDS011;3807;49.030;8.714;2022-12-19T15:18:02;46.43;;;23.93;;
7531;SDS011;3807;49.030;8.714;2022-12-19T15:20:40;54.17;;;25.73;;
7531;SDS011;3807;49.030;8.714;2022-12-19T15:23:05;47.87;;;24.27;;
7531;SDS011;3807;49.030;8.714;2022-12-19T15:25:30;52.93;;;23.70;;
7531;SDS011;3807;49.030;8.714;2022-12-19T15:27:56;50.87;;;23.27;;
7531;SDS011;3807;49.030;8.714;2022-12-19T15:30:21;48.00;;;22.43;;
7531;SDS011;3807;49.030;8.714;2022-12-19T15:32:47;44.30;;;23.67;;
7531;SDS011;3807;49.030;8.714;2022-12-19T15:35:13;47.23;;;22.60;;
7531;SDS011;3807;49.030;8.714;2022-12-19T15:37:40;46.60;;;24.17;;
7531;SDS011;3807;49.030;8.714;2022-12-19T15:40:06;48.70;;;22.13;;
7531;SDS011;3807;49.030;8.714;2022-12-19T15:42:37;45.80;;;22.87;;
7531;SDS011;3807;49.030;8.714;2022-12-19T15:45:02;47.90;;;23.90;;
7531;SDS011;3807;49.030;8.714;2022-12-19T15:47:32;49.40;;;23.67;;
7531;SDS011;3807;49.030;8.714;2022-12-19T15:49:59;43.83;;;24.30;;
7531;SDS011;3807;49.030;8.714;2022-12-19T15:52:30;53.97;;;24.00;;
7531;SDS011;3807;49.030;8.714;2022-12-19T15:54:56;46.30;;;23.83;;
7531;SDS011;3807;49.030;8.714;2022-12-19T15:57:37;44.83;;;24.63;;
7531;SDS011;3807;49.030;8.714;2022-12-19T16:00:16;58.80;;;28.13;;
7531;SDS011;3807;49.030;8.714;2022-12-19T16:02:44;72.83;;;33.33;;
7531;SDS011;3807;49.030;8.714;2022-12-19T16:05:11;74.73;;;31.70;;
7531;SDS011;3807;49.030;8.714;2022-12-19T16:07:37;88.77;;;35.37;;
7531;SDS011;3807;49.030;8.714;2022-12-19T16:10:02;55.83;;;28.77;;
7531;SDS011;3807;49.030;8.714;2022-12-19T16:12:32;61.33;;;28.83;;
7531;SDS011;3807;49.030;8.714;2022-12-19T16:15:00;51.60;;;24.67;;
7531;SDS011;3807;49.030;8.714;2022-12-19T16:17:28;51.63;;;25.23;;
7531;SDS011;3807;49.030;8.714;2022-12-19T16:19:56;51.17;;;25.20;;
7531;SDS011;3807;49.030;8.714;2022-12-19T16:22:23;53.10;;;25.83;;
7531;SDS011;3807;49.030;8.714;2022-12-19T16:24:50;46.07;;;22.67;;
7531;SDS011;3807;49.030;8.714;2022-12-19T16:27:23;51.70;;;26.03;;
7531;SDS011;3807;49.030;8.714;2022-12-19T16:29:50;68.20;;;31.03;;
7531;SDS011;3807;49.030;8.714;2022-12-19T16:32:17;60.67;;;28.70;;
7531;SDS011;3807;49.030;8.714;2022-12-19T16:34:43;50.13;;;27.90;;
7531;SDS011;3807;49.030;8.714;2022-12-19T16:37:09;64.07;;;29.80;;
7531;SDS011;3807;49.030;8.714;2022-12-19T16:39:34;67.70;;;32.23;;
7531;SDS011;3807;49.030;8.714;2022-12-19T16:42:01;75.47;;;36.40;;
7531;SDS011;3807;49.030;8.714;2022-12-19T16:44:29;73.40;;;33.13;;
7531;SDS011;3807;49.030;8.714;2022-12-19T16:46:57;65.13;;;30.63;;
7531;SDS011;3807;49.030;8.714;2022-12-19T16:49:22;65.87;;;32.93;;
7531;SDS011;3807;49.030;8.714;2022-12-19T16:51:48;67.83;;;33.77;;
7531;SDS011;3807;49.030;8.714;2022-12-19T16:54:14;80.77;;;33.90;;
7531;SDS011;3807;49.030;8.714;2022-12-19T17:01:53;48.93;;;26.43;;
7531;SDS011;3807;49.030;8.714;2022-12-19T17:04:21;55.73;;;28.83;;
7531;SDS011;3807;49.030;8.714;2022-12-19T17:06:48;56.30;;;27.40;;
7531;SDS011;3807;49.030;8.714;2022-12-19T17:09:15;52.50;;;26.67;;